Time;durP1;ratioP1;P1;durP2;ratioP2;P2;SDS_P1;SDS_P2;PMS_P1;PMS_P2;Temp;Humidity;BMP_temperature;BMP_pressure;BME280_temperature;BME280_humidity;BME280_pressure;Samples;Min_cycle;Max_cycle;Signal;HPM_P1;HPM_P2
2023/07/05 00:01:31;;;;;;;;;;;;;;;22.11;69.02;100356.25;5400493;32;34962;-75
2023/07/05 00:04:34;;;;;;;;;;;;;;;22.20;69.28;100369.81;5406910;32;35004;-75
2023/07/05 00:07:36;;;;;;;;;;;;;;;22.07;70.23;100365.50;5388991;32;35153;-76
2023/07/05 00:10:38;;;;;;;;;;;;;;;22.70;67.26;100360.78;5393330;32;35871;-73
2023/07/05 00:13:40;;;;;;;;;;;;;;;22.69;67.39;100359.09;5402906;32;34910;-75
2023/07/05 00:16:42;;;;;;;;;;;;;;;23.38;64.68;100362.66;5388849;32;34794;-74
2023/07/05 00:19:48;;;;;;;;;;;;;;;23.32;64.72;100365.94;5406893;32;35404;-76
2023/07/05 00:22:51;;;;;;;;;;;;;;;22.24;69.10;100363.22;5388407;32;34428;-73
2023/07/05 00:25:53;;;;;;;;;;;;;;;22.05;70.59;100369.28;5406823;32;35554;-75
2023/07/05 00:28:55;;;;;;;;;;;;;;;21.58;72.54;100367.06;5390616;32;34933;-72
2023/07/05 00:31:57;;;;;;;;;;;;;;;21.49;73.76;100357.12;5391476;32;37478;-75
2023/07/05 00:34:59;;;;;;;;;;;;;;;21.92;71.76;100361.47;5403181;32;34697;-72
2023/07/05 00:38:01;;;;;;;;;;;;;;;21.90;72.13;100361.63;5403122;32;34993;-73
2023/07/05 00:41:03;;;;;;;;;;;;;;;21.14;75.41;100357.44;5405963;32;34329;-72
2023/07/05 00:44:05;;;;;;;;;;;;;;;21.89;72.49;100361.72;5400169;32;34631;-73
2023/07/05 00:47:19;;;;;;;;;;;;;;;22.20;70.92;100351.91;5403215;32;34682;-72
2023/07/05 00:50:23;;;;;;;;;;;;;;;22.51;69.02;100354.53;5400163;32;34828;-72
2023/07/05 00:53:25;;;;;;;;;;;;;;;21.58;73.66;100366.22;5393073;32;34876;-74
2023/07/05 00:56:28;;;;;;;;;;;;;;;22.25;70.70;100362.22;5409657;32;35291;-71
2023/07/05 00:59:31;;;;;;;;;;;;;;;22.65;68.74;100360.34;5391612;32;35041;-72
2023/07/05 01:02:33;;;;;;;;;;;;;;;22.60;68.72;100353.72;5393691;32;34576;-72
2023/07/05 01:05:34;;;;;;;;;;;;;;;22.61;68.57;100356.28;5404363;32;34415;-75
2023/07/05 01:08:36;;;;;;;;;;;;;;;22.42;69.20;100354.41;5394899;32;35180;-70
2023/07/05 01:11:41;;;;;;;;;;;;;;;22.28;70.37;100351.22;5390913;32;34766;-72
2023/07/05 01:14:46;;;;;;;;;;;;;;;22.50;69.30;100352.84;5385071;32;34300;-72
2023/07/05 01:17:53;;;;;;;;;;;;;;;22.87;67.43;100345.91;5407263;32;35449;-74
2023/07/05 01:20:55;;;;;;;;;;;;;;;22.24;69.53;100347.16;5402820;32;35382;-72
2023/07/05 01:24:00;;;;;;;;;;;;;;;21.40;74.17;100363.28;5407876;32;34444;-74
2023/07/05 01:27:14;;;;;;;;;;;;;;;21.84;72.62;100356.81;5409266;32;34781;-75
2023/07/05 01:30:35;;;;;;;;;;;;;;;21.17;76.14;100356.31;5406580;32;34649;-72
2023/07/05 01:33:39;;;;;;;;;;;;;;;21.40;75.07;100344.56;5409889;32;35381;-71
2023/07/05 01:36:40;;;;;;;;;;;;;;;21.88;72.62;100352.87;5392679;32;35709;-74
2023/07/05 01:39:42;;;;;;;;;;;;;;;22.47;69.47;100337.03;5405013;32;34875;-74
2023/07/05 01:42:44;;;;;;;;;;;;;;;22.52;69.27;100340.16;5403714;32;34900;-72
2023/07/05 01:45:55;;;;;;;;;;;;;;;22.21;69.73;100342.03;5402249;32;35317;-73
2023/07/05 01:49:24;;;;;;;;;;;;;;;22.32;69.35;100347.31;5398455;32;36412;-73
2023/07/05 01:52:38;;;;;;;;;;;;;;;21.57;72.90;100353.81;5402130;32;34880;-75
2023/07/05 01:55:45;;;;;;;;;;;;;;;21.29;73.38;100347.28;5406983;32;35651;-75
2023/07/05 01:58:47;;;;;;;;;;;;;;;21.22;74.95;100351.44;5394248;32;34281;-75
2023/07/05 02:01:50;;;;;;;;;;;;;;;21.02;76.14;100342.41;5393820;32;35390;-74
2023/07/05 02:04:53;;;;;;;;;;;;;;;20.94;76.39;100350.22;5401806;32;35243;-75
2023/07/05 02:07:56;;;;;;;;;;;;;;;20.97;76.69;100341.94;5407559;32;35004;-73
2023/07/05 02:10:58;;;;;;;;;;;;;;;20.99;76.37;100346.16;5393864;32;35432;-73
2023/07/05 02:14:00;;;;;;;;;;;;;;;21.13;75.49;100339.72;5401130;32;34629;-75
2023/07/05 02:17:02;;;;;;;;;;;;;;;20.96;76.58;100354.47;5411252;32;34450;-74
2023/07/05 02:20:04;;;;;;;;;;;;;;;21.73;73.08;100353.34;5404897;32;34725;-71
2023/07/05 02:23:06;;;;;;;;;;;;;;;21.83;71.87;100343.53;5405962;32;34455;-71
2023/07/05 02:26:08;;;;;;;;;;;;;;;21.46;73.55;100346.72;5404782;32;34494;-74
2023/07/05 02:29:10;;;;;;;;;;;;;;;21.37;73.57;100347.50;5407104;32;35218;-75
2023/07/05 02:32:12;;;;;;;;;;;;;;;21.12;74.79;100354.00;5407705;32;34972;-70
2023/07/05 02:35:14;;;;;;;;;;;;;;;21.07;76.01;100350.91;5389250;32;35201;-72
2023/07/05 02:38:16;;;;;;;;;;;;;;;21.16;75.23;100349.28;5383102;32;36127;-72
2023/07/05 02:41:18;;;;;;;;;;;;;;;21.20;74.73;100350.72;5403642;32;34242;-72
2023/07/05 02:44:20;;;;;;;;;;;;;;;21.81;71.45;100340.16;5406244;32;34497;-74
2023/07/05 02:47:22;;;;;;;;;;;;;;;21.52;73.04;100348.03;5387903;32;34928;-72
2023/07/05 02:50:24;;;;;;;;;;;;;;;21.51;73.30;100335.63;5403563;32;34682;-72
2023/07/05 02:53:26;;;;;;;;;;;;;;;21.00;76.19;100342.56;5405806;32;34867;-72
2023/07/05 02:56:28;;;;;;;;;;;;;;;21.22;75.81;100344.25;5403514;32;35013;-75
2023/07/05 02:59:30;;;;;;;;;;;;;;;21.00;76.32;100336.38;5408401;32;34497;-73
2023/07/05 03:02:32;;;;;;;;;;;;;;;20.94;77.39;100332.37;5400700;32;34450;-72
2023/07/05 03:05:34;;;;;;;;;;;;;;;21.45;73.80;100336.16;5404539;32;34770;-75
2023/07/05 03:08:36;;;;;;;;;;;;;;;21.65;71.95;100339.81;5403128;32;35572;-72
2023/07/05 03:11:38;;;;;;;;;;;;;;;20.99;75.94;100343.50;5391440;32;34826;-71
2023/07/05 03:14:40;;;;;;;;;;;;;;;20.59;80.08;100337.94;5407166;32;36446;-71
2023/07/05 03:17:42;;;;;;;;;;;;;;;20.67;78.83;100342.63;5404330;32;34793;-71
2023/07/05 03:20:45;;;;;;;;;;;;;;;20.59;79.65;100345.09;5393285;32;34851;-72
2023/07/05 03:23:47;;;;;;;;;;;;;;;21.13;77.07;100345.03;5402865;32;34198;-74
2023/07/05 03:26:52;;;;;;;;;;;;;;;21.37;75.60;100342.13;5393752;32;36189;-74
2023/07/05 03:29:55;;;;;;;;;;;;;;;22.08;71.36;100324.34;5394517;32;34452;-72
2023/07/05 03:32:57;;;;;;;;;;;;;;;20.72;77.04;100333.28;5404709;32;35189;-74
2023/07/05 03:36:03;;;;;;;;;;;;;;;20.17;81.69;100343.09;5403906;32;35076;-74
2023/07/05 03:39:05;;;;;;;;;;;;;;;20.59;79.83;100339.75;5406821;32;35016;-72
2023/07/05 03:42:07;;;;;;;;;;;;;;;20.64;79.04;100343.75;5401224;32;35096;-71
2023/07/05 03:45:09;;;;;;;;;;;;;;;21.01;77.74;100346.06;5400259;32;34242;-71
2023/07/05 03:48:11;;;;;;;;;;;;;;;20.95;77.53;100341.22;5403456;32;34110;-72
2023/07/05 03:51:17;;;;;;;;;;;;;;;20.74;78.83;100341.19;5403007;32;34828;-75
2023/07/05 03:54:18;;;;;;;;;;;;;;;21.14;77.20;100348.56;5400904;32;35849;-75
2023/07/05 03:57:20;;;;;;;;;;;;;;;21.29;76.07;100349.97;5407403;32;34286;-73
2023/07/05 04:00:22;;;;;;;;;;;;;;;21.82;73.75;100347.19;5405331;32;34457;-74
2023/07/05 04:03:24;;;;;;;;;;;;;;;21.75;74.14;100346.03;5406989;32;34325;-71
2023/07/05 04:06:28;;;;;;;;;;;;;;;21.46;73.33;100344.06;5400324;32;33875;-71
2023/07/05 04:09:30;;;;;;;;;;;;;;;21.98;72.24;100336.03;5406959;32;33757;-74
2023/07/05 04:12:32;;;;;;;;;;;;;;;23.06;67.39;100331.66;5391722;32;34904;-72
2023/07/05 04:15:34;;;;;;;;;;;;;;;21.84;72.42;100339.91;5402395;32;35843;-71
2023/07/05 04:18:39;;;;;;;;;;;;;;;22.67;68.72;100331.63;5404880;32;35363;-72
2023/07/05 04:21:41;;;;;;;;;;;;;;;22.00;72.21;100340.25;5388271;32;34308;-74
2023/07/05 04:24:43;;;;;;;;;;;;;;;22.14;71.50;100337.22;5406582;32;34442;-74
2023/07/05 04:27:44;;;;;;;;;;;;;;;22.17;72.34;100334.31;5381422;32;35036;-72
2023/07/05 04:30:47;;;;;;;;;;;;;;;21.63;73.56;100342.59;5410315;32;34563;-72
2023/07/05 04:33:49;;;;;;;;;;;;;;;21.76;73.36;100355.75;5406269;32;34998;-72
2023/07/05 04:36:51;;;;;;;;;;;;;;;22.20;71.20;100348.38;5405137;32;34630;-75
2023/07/05 04:39:53;;;;;;;;;;;;;;;22.43;70.46;100349.88;5410161;32;35568;-75
2023/07/05 04:42:55;;;;;;;;;;;;;;;22.82;68.44;100348.13;5401442;32;34846;-74
2023/07/05 04:45:58;;;;;;;;;;;;;;;22.81;68.39;100351.78;5378662;32;34847;-74
2023/07/05 04:49:00;;;;;;;;;;;;;;;23.88;64.02;100357.94;5389661;32;34365;-73
2023/07/05 04:52:02;;;;;;;;;;;;;;;23.49;65.52;100352.63;5404619;32;34884;-74
2023/07/05 04:55:04;;;;;;;;;;;;;;;24.84;60.27;100350.41;5411247;32;35493;-73
2023/07/05 04:58:06;;;;;;;;;;;;;;;25.17;59.03;100358.81;5410925;32;34190;-71
2023/07/05 05:01:08;;;;;;;;;;;;;;;25.12;59.29;100348.53;5397772;32;35198;-72
2023/07/05 05:04:10;;;;;;;;;;;;;;;24.19;62.50;100363.06;5378710;32;33730;-75
2023/07/05 05:07:13;;;;;;;;;;;;;;;25.43;57.97;100356.16;5410873;32;34588;-75
2023/07/05 05:10:15;;;;;;;;;;;;;;;25.72;56.85;100353.19;5404833;32;34620;-72
2023/07/05 05:13:17;;;;;;;;;;;;;;;25.69;56.59;100354.31;5390988;32;34729;-71
2023/07/05 05:16:19;;;;;;;;;;;;;;;25.73;56.85;100358.44;5390715;32;35547;-76
2023/07/05 05:19:21;;;;;;;;;;;;;;;25.95;55.52;100357.03;5396214;32;35131;-76
2023/07/05 05:22:25;;;;;;;;;;;;;;;26.71;53.58;100361.59;5406797;32;35522;-76
2023/07/05 05:25:27;;;;;;;;;;;;;;;26.18;54.72;100358.16;5403566;32;34439;-76
2023/07/05 05:28:30;;;;;;;;;;;;;;;26.13;54.72;100360.50;5412264;32;34761;-77
2023/07/05 05:31:32;;;;;;;;;;;;;;;26.57;53.24;100359.53;5405366;32;35656;-78
2023/07/05 05:34:34;;;;;;;;;;;;;;;27.92;48.87;100356.41;5402649;32;35922;-76
2023/07/05 05:37:36;;;;;;;;;;;;;;;28.36;48.22;100351.41;5406024;32;34394;-72
2023/07/05 05:40:38;;;;;;;;;;;;;;;28.06;48.74;100345.72;5404502;32;35627;-80
2023/07/05 05:43:41;;;;;;;;;;;;;;;27.48;49.29;100346.00;5408344;32;35269;-77
2023/07/05 05:46:43;;;;;;;;;;;;;;;29.22;45.55;100344.09;5385860;32;35027;-77
2023/07/05 05:49:45;;;;;;;;;;;;;;;29.94;43.46;100341.72;5407779;32;35078;-79
2023/07/05 05:52:47;;;;;;;;;;;;;;;28.21;47.08;100334.19;5404114;32;35243;-72
2023/07/05 05:55:51;;;;;;;;;;;;;;;28.73;46.53;100339.03;5403989;32;34153;-72
2023/07/05 05:58:53;;;;;;;;;;;;;;;29.71;44.57;100340.97;5406966;32;34318;-73
2023/07/05 06:01:58;;;;;;;;;;;;;;;30.51;42.63;100337.50;5403360;32;35847;-70
2023/07/05 06:05:00;;;;;;;;;;;;;;;28.99;46.25;100339.56;5406063;32;35829;-86
2023/07/05 06:08:02;;;;;;;;;;;;;;;30.68;41.77;100334.38;5403737;32;34421;-79
2023/07/05 06:11:04;;;;;;;;;;;;;;;31.06;40.51;100331.44;5401393;32;34442;-83
2023/07/05 06:14:08;;;;;;;;;;;;;;;30.64;41.29;100329.50;5405327;32;34966;-74
2023/07/05 06:17:10;;;;;;;;;;;;;;;30.57;41.56;100328.59;5386937;32;34393;-74
2023/07/05 06:20:15;;;;;;;;;;;;;;;31.78;39.47;100320.38;5406351;32;35499;-75
2023/07/05 06:23:17;;;;;;;;;;;;;;;29.78;43.33;100326.50;5404007;32;34201;-81
2023/07/05 06:26:19;;;;;;;;;;;;;;;29.94;43.23;100320.03;5393028;32;34258;-73
2023/07/05 06:29:21;;;;;;;;;;;;;;;31.19;40.25;100309.00;5401228;32;32155;-72
2023/07/05 06:32:23;;;;;;;;;;;;;;;32.38;37.43;100311.69;5405169;32;34338;-75
2023/07/05 06:35:25;;;;;;;;;;;;;;;31.32;39.38;100316.44;5404774;32;34555;-82
2023/07/05 06:38:28;;;;;;;;;;;;;;;30.25;41.72;100316.31;5400604;32;33163;-79
2023/07/05 06:41:30;;;;;;;;;;;;;;;31.59;39.22;100307.47;5404519;32;34115;-72
2023/07/05 06:44:32;;;;;;;;;;;;;;;31.65;39.12;100306.66;5403956;32;34682;-74
2023/07/05 06:47:37;;;;;;;;;;;;;;;32.70;37.05;100305.50;5309023;32;34455;-77
2023/07/05 06:50:39;;;;;;;;;;;;;;;32.70;37.22;100305.50;5287722;32;37951;-69
2023/07/05 06:53:41;;;;;;;;;;;;;;;31.67;38.35;100306.47;5293368;32;35419;-74
2023/07/05 06:56:50;;;;;;;;;;;;;;;32.42;36.10;100304.81;5289646;32;35752;-77
2023/07/05 06:59:52;;;;;;;;;;;;;;;35.57;31.34;100301.63;5288236;32;34941;-77
2023/07/05 07:02:54;;;;;;;;;;;;;;;32.14;36.75;100307.56;5296193;32;36120;-72
2023/07/05 07:05:57;;;;;;;;;;;;;;;33.59;35.02;100307.06;5301852;32;34067;-77
2023/07/05 07:09:43;;;;;;;;;;;;;;;33.41;35.14;100292.19;5345120;31;976360;-70
2023/07/05 07:12:45;;;;;;;;;;;;;;;33.41;35.14;100292.19;5372540;32;35202;-86
2023/07/05 07:15:47;;;;;;;;;;;;;;;33.16;35.27;100299.28;5390358;32;34658;-80
2023/07/05 07:18:49;;;;;;;;;;;;;;;33.42;34.29;100299.31;5375272;32;36150;-71
2023/07/05 07:21:51;;;;;;;;;;;;;;;34.23;32.47;100295.34;5373595;32;35074;-74
2023/07/05 07:24:54;;;;;;;;;;;;;;;32.83;34.11;100291.06;5382097;32;34015;-68
2023/07/05 07:27:56;;;;;;;;;;;;;;;35.18;30.75;100288.06;5400689;32;35101;-76
2023/07/05 07:30:58;;;;;;;;;;;;;;;34.50;31.67;100289.78;5395334;31;34652;-75
2023/07/05 07:34:02;;;;;;;;;;;;;;;32.97;34.25;100294.66;5381788;32;35956;-81
2023/07/05 07:37:05;;;;;;;;;;;;;;;33.50;33.56;100297.44;5367759;32;36246;-82
2023/07/05 07:40:08;;;;;;;;;;;;;;;33.95;32.64;100295.69;5389338;32;36019;-79
2023/07/05 07:43:10;;;;;;;;;;;;;;;34.13;32.57;100293.06;5384179;31;34675;-73
2023/07/05 07:46:14;;;;;;;;;;;;;;;34.04;32.55;100294.37;5387352;32;34187;-77
2023/07/05 07:49:16;;;;;;;;;;;;;;;35.49;30.04;100287.19;5370147;32;34675;-80
2023/07/05 07:52:18;;;;;;;;;;;;;;;34.70;30.62;100290.50;5395064;32;34857;-75
2023/07/05 07:55:20;;;;;;;;;;;;;;;35.12;30.29;100290.88;5368601;32;34344;-78
2023/07/05 07:58:22;;;;;;;;;;;;;;;37.42;27.00;100282.72;5369385;32;34064;-87
2023/07/05 08:01:25;;;;;;;;;;;;;;;36.76;27.95;100287.31;5348799;32;35883;-81
2023/07/05 08:04:28;;;;;;;;;;;;;;;34.48;30.71;100290.00;5360646;32;34781;-76
2023/07/05 08:07:31;;;;;;;;;;;;;;;37.14;27.14;100284.19;5363979;32;34616;-72
2023/07/05 08:10:33;;;;;;;;;;;;;;;36.07;28.42;100277.75;5364921;32;35580;-78
2023/07/05 08:13:36;;;;;;;;;;;;;;;35.76;28.74;100287.75;5361547;32;35077;-73
2023/07/05 08:16:38;;;;;;;;;;;;;;;35.10;29.54;100282.03;5377577;31;34924;-70
2023/07/05 08:19:40;;;;;;;;;;;;;;;37.05;26.71;100282.06;5303382;32;36214;-71
2023/07/05 08:22:43;;;;;;;;;;;;;;;34.61;30.23;100280.91;5301971;32;36109;-77
2023/07/05 08:25:54;;;;;;;;;;;;;;;33.89;31.69;100285.59;5308467;32;35312;-78
2023/07/05 08:28:56;;;;;;;;;;;;;;;34.40;31.13;100273.88;5314943;32;34146;-79
2023/07/05 08:31:58;;;;;;;;;;;;;;;36.04;28.84;100272.72;5302577;32;34009;-74
2023/07/05 08:35:01;;;;;;;;;;;;;;;35.39;30.01;100262.22;5295354;32;35655;-75
2023/07/05 08:38:06;;;;;;;;;;;;;;;36.52;27.38;100272.75;5305170;32;36358;-81
2023/07/05 08:41:16;;;;;;;;;;;;;;;33.58;32.26;100269.97;5304847;32;34064;-68
2023/07/05 08:44:26;;;;;;;;;;;;;;;34.33;31.55;100265.72;5301983;32;35560;-76
2023/07/05 08:47:33;;;;;;;;;;;;;;;37.61;26.42;100266.94;5300728;32;32530;-76
2023/07/05 08:50:36;;;;;;;;;;;;;;;37.81;25.95;100264.69;5316697;32;34155;-71
2023/07/05 08:54:10;;;;;;;;;;;;;;;37.46;26.38;100266.59;5303479;32;34478;-73
2023/07/05 08:57:17;;;;;;;;;;;;;;;38.76;24.70;100256.94;5304588;32;34140;-78
2023/07/05 09:00:39;;;;;;;;;;;;;;;36.87;27.83;100269.28;5308692;32;35491;-77
2023/07/05 09:03:43;;;;;;;;;;;;;;;36.76;27.55;100262.66;5303759;32;34131;-84
2023/07/05 09:06:49;;;;;;;;;;;;;;;37.11;26.48;100261.94;5312181;32;34103;-82
2023/07/05 09:09:59;;;;;;;;;;;;;;;37.53;25.90;100262.66;5315896;32;33979;-84
2023/07/05 09:13:01;;;;;;;;;;;;;;;37.28;25.81;100262.03;5307443;32;34449;-76
2023/07/05 09:16:12;;;;;;;;;;;;;;;34.78;29.47;100262.09;5304758;32;34169;-72
2023/07/05 09:19:17;;;;;;;;;;;;;;;34.66;29.80;100256.53;5301459;32;33962;-74
2023/07/05 09:22:23;;;;;;;;;;;;;;;33.48;32.15;100264.09;5303224;32;34510;-70
2023/07/05 09:25:25;;;;;;;;;;;;;;;32.02;34.85;100272.00;5298787;32;35287;-81
2023/07/05 09:29:06;;;;;;;;;;;;;;;34.52;30.83;100246.75;5300045;32;35486;-76
2023/07/05 09:32:10;;;;;;;;;;;;;;;35.47;29.08;100255.66;5287613;32;35488;-77
2023/07/05 09:35:19;;;;;;;;;;;;;;;35.91;28.37;100257.31;5317314;32;34748;-83
2023/07/05 09:38:23;;;;;;;;;;;;;;;36.69;26.53;100239.19;5312702;32;36967;-84
2023/07/05 09:41:41;;;;;;;;;;;;;;;34.86;29.65;100245.47;5327746;32;32632;-82
2023/07/05 09:44:43;;;;;;;;;;;;;;;33.96;31.45;100261.06;5301606;32;32350;-84
2023/07/05 09:47:47;;;;;;;;;;;;;;;34.37;30.35;100255.19;5322256;32;35505;-84
2023/07/05 09:50:50;;;;;;;;;;;;;;;34.12;30.72;100250.50;5305219;32;35042;-84
2023/07/05 09:53:55;;;;;;;;;;;;;;;34.11;31.22;100254.28;5303713;32;33880;-84
2023/07/05 09:56:58;;;;;;;;;;;;;;;36.19;27.93;100247.69;5296619;32;36211;-82
2023/07/05 10:00:03;;;;;;;;;;;;;;;36.28;27.12;100238.94;5307369;32;35521;-83
2023/07/05 10:03:11;;;;;;;;;;;;;;;36.61;26.37;100232.16;5312907;32;35007;-83
2023/07/05 10:06:14;;;;;;;;;;;;;;;34.63;29.49;100230.50;5295228;32;35281;-84
2023/07/05 10:09:17;;;;;;;;;;;;;;;37.39;25.12;100228.34;5304888;32;37069;-83
2023/07/05 10:12:19;;;;;;;;;;;;;;;37.75;24.72;100226.41;5301500;32;34963;-83
2023/07/05 10:15:24;;;;;;;;;;;;;;;37.32;25.66;100227.63;5310292;32;34332;-83
2023/07/05 10:18:27;;;;;;;;;;;;;;;36.25;26.80;100231.19;5316630;32;36391;-82
2023/07/05 10:21:30;;;;;;;;;;;;;;;39.16;23.08;100219.19;5317435;32;35550;-84
2023/07/05 10:24:39;;;;;;;;;;;;;;;39.61;22.08;100214.56;5305064;32;36778;-82
2023/07/05 10:27:43;;;;;;;;;;;;;;;39.97;22.03;100216.69;5308842;32;35505;-83
2023/07/05 10:30:49;;;;;;;;;;;;;;;39.85;21.89;100217.91;5307490;32;34909;-83
2023/07/05 10:34:13;;;;;;;;;;;;;;;38.54;22.94;100216.44;5308153;32;34085;-85
2023/07/05 10:37:29;;;;;;;;;;;;;;;39.38;22.38;100215.62;5309358;32;34259;-82
2023/07/05 10:40:32;;;;;;;;;;;;;;;37.77;23.93;100218.75;5316489;32;35688;-82
2023/07/05 10:43:35;;;;;;;;;;;;;;;37.78;23.88;100212.19;5293639;32;33681;-78
2023/07/05 10:46:37;;;;;;;;;;;;;;;37.10;24.82;100213.69;5299219;32;35497;-76
2023/07/05 10:49:39;;;;;;;;;;;;;;;41.42;19.66;100203.97;5312394;32;34289;-78
2023/07/05 10:52:46;;;;;;;;;;;;;;;38.82;22.45;100203.75;5299012;32;35798;-79
2023/07/05 10:55:49;;;;;;;;;;;;;;;38.53;22.88;100194.75;5315024;32;35137;-73
2023/07/05 10:58:54;;;;;;;;;;;;;;;34.54;28.16;100198.25;5413501;32;34338;-73
2023/07/05 11:02:01;;;;;;;;;;;;;;;36.99;25.20;100193.44;5423374;32;35746;-74
2023/07/05 11:05:04;;;;;;;;;;;;;;;37.31;24.31;100198.56;5422067;32;34917;-74
2023/07/05 11:08:15;;;;;;;;;;;;;;;38.47;23.33;100189.16;5423234;32;35379;-73
2023/07/05 11:11:23;;;;;;;;;;;;;;;39.73;20.58;100176.78;5422988;32;35093;-81
2023/07/05 11:14:28;;;;;;;;;;;;;;;37.44;23.14;100192.84;5420328;32;35628;-73
2023/07/05 11:17:34;;;;;;;;;;;;;;;39.48;21.49;100175.38;5424633;32;34226;-80
2023/07/05 11:20:39;;;;;;;;;;;;;;;40.36;20.08;100171.69;5408184;32;35856;-76
2023/07/05 11:23:44;;;;;;;;;;;;;;;36.54;24.87;100173.97;5422869;32;34950;-72
2023/07/05 11:26:46;;;;;;;;;;;;;;;38.37;22.50;100169.75;5425630;32;35203;-79
2023/07/05 11:29:51;;;;;;;;;;;;;;;40.53;20.16;100164.16;5418601;32;35322;-78
2023/07/05 11:33:02;;;;;;;;;;;;;;;39.93;20.52;100166.00;5426737;32;34667;-81
2023/07/05 11:36:24;;;;;;;;;;;;;;;39.46;20.23;100165.69;5425943;32;34522;-75
2023/07/05 11:39:33;;;;;;;;;;;;;;;38.33;21.69;100159.53;5424278;32;35524;-73
2023/07/05 11:42:38;;;;;;;;;;;;;;;37.63;22.53;100166.09;5431922;32;34911;-71
2023/07/05 11:45:45;;;;;;;;;;;;;;;38.31;21.19;100151.53;5414953;32;34403;-82
2023/07/05 11:48:48;;;;;;;;;;;;;;;36.46;23.56;100146.94;5416281;32;34948;-78
2023/07/05 11:51:51;;;;;;;;;;;;;;;39.19;20.40;100140.88;5419207;32;34137;-80
2023/07/05 11:55:03;;;;;;;;;;;;;;;40.72;19.01;100135.13;5421845;32;34697;-71
2023/07/05 11:58:08;;;;;;;;;;;;;;;35.71;24.25;100147.34;5416464;32;35456;-73
2023/07/05 12:01:12;;;;;;;;;;;;;;;37.23;22.78;100135.87;5422887;32;34574;-68
2023/07/05 12:04:17;;;;;;;;;;;;;;;39.42;20.23;100123.31;5419863;32;35353;-83
2023/07/05 12:07:20;;;;;;;;;;;;;;;38.34;20.91;100125.53;5421321;32;35017;-75
2023/07/05 12:10:23;;;;;;;;;;;;;;;36.72;22.47;100121.84;5424333;32;34574;-75
2023/07/05 12:13:26;;;;;;;;;;;;;;;34.72;25.75;100121.91;5421255;32;34809;-73
2023/07/05 12:16:28;;;;;;;;;;;;;;;35.12;24.81;100114.16;5422271;32;34284;-68
2023/07/05 12:19:30;;;;;;;;;;;;;;;35.23;24.15;100112.56;5418661;32;34913;-69
2023/07/05 12:22:33;;;;;;;;;;;;;;;32.82;28.19;100121.50;5415368;32;34573;-85
2023/07/05 12:25:35;;;;;;;;;;;;;;;34.24;25.88;100108.81;5418453;32;34219;-75
2023/07/05 12:28:41;;;;;;;;;;;;;;;33.15;27.47;100109.75;5410903;32;37408;-78
2023/07/05 12:31:43;;;;;;;;;;;;;;;33.35;27.27;100096.88;5426071;32;34252;-75
2023/07/05 12:34:46;;;;;;;;;;;;;;;33.56;26.86;100097.69;5415878;32;34443;-74
2023/07/05 12:37:48;;;;;;;;;;;;;;;33.94;25.93;100086.78;5417457;32;35090;-77
2023/07/05 12:40:54;;;;;;;;;;;;;;;33.22;27.61;100091.50;5428644;32;35305;-70
2023/07/05 12:43:58;;;;;;;;;;;;;;;33.26;26.73;100083.75;5411403;32;33968;-74
2023/07/05 12:47:13;;;;;;;;;;;;;;;32.77;27.82;100083.19;5416034;32;34944;-79
2023/07/05 12:50:20;;;;;;;;;;;;;;;33.79;26.31;100072.62;5409519;32;34158;-73
2023/07/05 12:53:23;;;;;;;;;;;;;;;33.32;26.96;100072.81;5425998;32;35524;-69
2023/07/05 12:56:40;;;;;;;;;;;;;;;33.30;27.64;100069.50;5413769;32;33886;-71
2023/07/05 12:59:42;;;;;;;;;;;;;;;32.55;28.34;100060.84;5407726;32;33526;-77
2023/07/05 13:03:03;;;;;;;;;;;;;;;33.31;27.13;100049.38;5421350;32;34415;-80
2023/07/05 13:06:07;;;;;;;;;;;;;;;32.75;28.22;100043.66;5424750;32;35270;-83
2023/07/05 13:09:10;;;;;;;;;;;;;;;33.46;27.50;100034.66;5407714;32;34021;-86
2023/07/05 13:12:12;;;;;;;;;;;;;;;33.88;26.71;100039.44;5410862;32;37331;-78
2023/07/05 13:15:15;;;;;;;;;;;;;;;32.45;28.02;100040.56;5420927;32;35593;-78
2023/07/05 13:18:20;;;;;;;;;;;;;;;33.83;26.46;100031.09;5427865;32;34336;-72
2023/07/05 13:21:22;;;;;;;;;;;;;;;32.69;27.77;100031.72;5419388;32;34131;-83
2023/07/05 13:24:27;;;;;;;;;;;;;;;33.09;27.19;100018.03;5407601;32;36553;-73
2023/07/05 13:27:31;;;;;;;;;;;;;;;33.10;27.53;100026.00;5422050;32;34196;-76
2023/07/05 13:30:33;;;;;;;;;;;;;;;33.21;27.21;100016.31;5418404;32;34002;-72
2023/07/05 13:33:35;;;;;;;;;;;;;;;33.96;25.62;100011.09;5405081;32;35392;-69
2023/07/05 13:36:37;;;;;;;;;;;;;;;33.03;27.71;100021.62;5418184;32;34670;-76
2023/07/05 13:39:40;;;;;;;;;;;;;;;33.77;26.36;100015.59;5410897;32;34277;-67
2023/07/05 13:42:42;;;;;;;;;;;;;;;33.72;26.64;100007.25;5422391;32;34706;-78
2023/07/05 13:45:45;;;;;;;;;;;;;;;32.09;28.75;99998.31;5427033;32;35294;-74
2023/07/05 13:48:48;;;;;;;;;;;;;;;33.52;26.77;99984.75;5413489;32;34429;-77
2023/07/05 13:51:55;;;;;;;;;;;;;;;33.76;26.05;99972.22;5425124;32;34302;-72
2023/07/05 13:54:57;;;;;;;;;;;;;;;33.07;27.21;99990.19;5408947;32;35301;-76
2023/07/05 13:58:00;;;;;;;;;;;;;;;32.96;27.28;99979.97;5399140;32;34014;-76
2023/07/05 14:01:03;;;;;;;;;;;;;;;32.37;27.84;99987.22;5423725;32;34188;-81
2023/07/05 14:04:04;;;;;;;;;;;;;;;33.22;26.99;99974.41;5416697;32;34476;-75
2023/07/05 14:07:07;;;;;;;;;;;;;;;33.06;27.66;99966.75;5415315;32;34227;-72
2023/07/05 14:10:11;;;;;;;;;;;;;;;33.72;27.30;99971.81;5414360;32;35269;-78
2023/07/05 14:13:14;;;;;;;;;;;;;;;32.81;29.10;99964.72;5415831;32;35117;-73
2023/07/05 14:16:16;;;;;;;;;;;;;;;33.67;28.07;99961.56;5418726;32;34281;-79
2023/07/05 14:19:19;;;;;;;;;;;;;;;34.17;26.98;99958.88;5418416;32;34183;-75
2023/07/05 14:22:23;;;;;;;;;;;;;;;33.40;27.68;99958.19;5427852;32;34533;-81
2023/07/05 14:25:25;;;;;;;;;;;;;;;33.78;27.26;99968.22;5398275;32;34358;-77
2023/07/05 14:28:27;;;;;;;;;;;;;;;33.09;28.32;99953.53;5419787;32;34101;-71
2023/07/05 14:31:28;;;;;;;;;;;;;;;32.51;29.28;99958.13;5409088;32;35420;-82
2023/07/05 14:34:31;;;;;;;;;;;;;;;32.15;29.74;99958.59;5413634;32;35960;-73
2023/07/05 14:37:33;;;;;;;;;;;;;;;32.34;29.74;99958.59;5414835;32;34500;-71
2023/07/05 14:40:35;;;;;;;;;;;;;;;32.13;29.82;99953.34;5400145;32;34251;-70
2023/07/05 14:43:37;;;;;;;;;;;;;;;32.08;30.13;99950.44;5425241;32;35600;-80
2023/07/05 14:46:39;;;;;;;;;;;;;;;32.83;28.62;99943.56;5413256;32;35780;-81
2023/07/05 14:49:41;;;;;;;;;;;;;;;32.51;28.64;99939.06;5411623;32;34560;-79
2023/07/05 14:52:44;;;;;;;;;;;;;;;32.17;29.55;99954.59;5407573;32;34166;-70
2023/07/05 14:55:47;;;;;;;;;;;;;;;32.37;29.17;99948.31;5411739;32;34448;-79
2023/07/05 14:58:49;;;;;;;;;;;;;;;32.05;29.30;99945.41;5410107;32;34231;-71
2023/07/05 15:01:51;;;;;;;;;;;;;;;32.96;28.34;99942.69;5425174;32;34648;-71
2023/07/05 15:04:53;;;;;;;;;;;;;;;32.94;28.37;99938.53;5423764;32;35161;-74
2023/07/05 15:07:55;;;;;;;;;;;;;;;32.24;28.73;99933.66;5411738;32;34307;-71
2023/07/05 15:10:58;;;;;;;;;;;;;;;31.90;29.37;99939.34;5412791;32;34758;-70
2023/07/05 15:14:01;;;;;;;;;;;;;;;32.77;28.35;99933.53;5421725;32;34694;-79
2023/07/05 15:17:05;;;;;;;;;;;;;;;32.56;29.24;99931.94;5428528;32;35070;-80
2023/07/05 15:20:09;;;;;;;;;;;;;;;32.42;29.73;99945.81;5422782;32;35434;-71
2023/07/05 15:23:11;;;;;;;;;;;;;;;32.33;30.05;99943.31;5423552;32;34683;-80
2023/07/05 15:26:13;;;;;;;;;;;;;;;32.18;30.41;99933.69;5426249;32;34993;-71
2023/07/05 15:29:16;;;;;;;;;;;;;;;31.61;31.26;99940.56;5424159;32;35056;-72
2023/07/05 15:32:19;;;;;;;;;;;;;;;32.02;30.47;99948.56;5430494;32;34728;-79
2023/07/05 15:35:21;;;;;;;;;;;;;;;32.75;29.14;99935.66;5413056;32;35137;-71
2023/07/05 15:38:23;;;;;;;;;;;;;;;32.93;29.06;99931.44;5433072;32;34285;-79
2023/07/05 15:41:25;;;;;;;;;;;;;;;32.96;29.12;99930.97;5424380;32;34964;-80
2023/07/05 15:44:27;;;;;;;;;;;;;;;32.21;30.14;99934.09;5425020;32;34319;-70
2023/07/05 15:47:30;;;;;;;;;;;;;;;31.97;30.11;99942.91;5422534;32;35679;-81